createdAt,value
2022-09-21T00:00:58.136Z,6.9
2022-09-21T00:02:08.260Z,6.9
2022-09-21T00:03:18.385Z,6.9
2022-09-21T00:04:28.494Z,6.9
2022-09-21T00:05:38.608Z,6.9
2022-09-21T00:06:48.739Z,6.9
2022-09-21T00:07:58.856Z,6.8
2022-09-21T00:09:08.962Z,6.8
2022-09-21T00:10:19.091Z,6.9
2022-09-21T00:11:29.208Z,6.9
2022-09-21T00:12:39.311Z,6.9
2022-09-21T00:13:48.461Z,6.9
2022-09-21T00:14:58.564Z,6.9
2022-09-21T00:16:08.688Z,6.8
2022-09-21T00:17:18.815Z,6.9
2022-09-21T00:18:28.917Z,6.8
2022-09-21T00:19:39.037Z,6.8
2022-09-21T00:20:49.162Z,6.8
2022-09-21T00:21:59.282Z,6.7
2022-09-21T00:23:09.402Z,6.7
2022-09-21T00:24:19.505Z,6.7
2022-09-21T00:25:29.634Z,6.6
2022-09-21T00:26:39.758Z,6.6
2022-09-21T00:27:49.866Z,6.6
2022-09-21T00:28:59.004Z,6.6
2022-09-21T00:30:09.125Z,6.6
2022-09-21T00:31:19.231Z,6.6
2022-09-21T00:32:29.357Z,6.6
2022-09-21T00:33:39.465Z,6.6
2022-09-21T00:34:49.594Z,6.6
2022-09-21T00:35:59.710Z,6.6
2022-09-21T00:37:09.829Z,6.5
2022-09-21T00:38:19.956Z,6.5
2022-09-21T00:39:30.056Z,6.5
2022-09-21T00:40:40.175Z,6.5
2022-09-21T00:41:50.299Z,6.5
2022-09-21T00:43:00.416Z,6.5
2022-09-21T00:44:09.548Z,6.5
2022-09-21T00:45:19.669Z,6.5
2022-09-21T00:46:29.791Z,6.4
2022-09-21T00:47:39.898Z,6.5
2022-09-21T00:48:50.026Z,6.5
2022-09-21T00:50:00.135Z,6.4
2022-09-21T00:51:10.254Z,6.4
2022-09-21T00:52:20.381Z,6.4
2022-09-21T00:54:40.623Z,6.4
2022-09-21T00:55:50.724Z,6.5
2022-09-21T00:57:00.842Z,6.4
2022-09-21T00:58:10.961Z,6.4
2022-09-21T00:59:20.094Z,6.4
2022-09-21T01:00:30.228Z,6.4
2022-09-21T01:01:40.331Z,6.4
2022-09-21T01:02:50.459Z,6.4
2022-09-21T01:04:00.565Z,6.4
2022-09-21T01:05:10.698Z,6.3
2022-09-21T01:06:20.818Z,6.3
2022-09-21T01:07:30.917Z,6.3
2022-09-21T01:08:41.037Z,6.3
2022-09-21T01:09:51.161Z,6.3
2022-09-21T01:11:01.281Z,6.3
2022-09-21T01:12:11.405Z,6.3
2022-09-21T01:13:21.510Z,6.2
2022-09-21T01:14:30.644Z,6.2
2022-09-21T01:15:40.765Z,6.2
2022-09-21T01:16:50.893Z,6.2
2022-09-21T01:18:01.005Z,6.2
2022-09-21T01:19:11.114Z,6.2
2022-09-21T01:20:21.242Z,6.2
2022-09-21T01:22:41.485Z,6.1
2022-09-21T01:23:51.592Z,6.2
2022-09-21T01:25:01.715Z,6.2
2022-09-21T01:26:11.823Z,6.2
2022-09-21T01:27:21.951Z,6.2
2022-09-21T01:28:32.055Z,6.2
2022-09-21T01:29:41.349Z,6.2
2022-09-21T01:30:51.325Z,6.1
2022-09-21T01:32:01.426Z,6.1
2022-09-21T01:33:11.553Z,6.2
2022-09-21T01:34:21.671Z,6.2
2022-09-21T01:35:31.795Z,6.2
2022-09-21T01:36:41.910Z,6.2
2022-09-21T01:37:52.029Z,6.2
2022-09-21T01:39:02.136Z,6.2
2022-09-21T01:40:12.264Z,6.2
2022-09-21T01:41:22.375Z,6.1
2022-09-21T01:43:42.616Z,6.2
2022-09-21T01:44:51.747Z,6.2
2022-09-21T01:46:01.864Z,6.2
2022-09-21T01:47:11.986Z,6.1
2022-09-21T01:48:22.108Z,6.1
2022-09-21T01:49:32.220Z,6.1
2022-09-21T01:50:42.336Z,6
2022-09-21T01:51:52.458Z,6
2022-09-21T01:53:02.564Z,5.9
2022-09-21T01:54:12.688Z,5.9
2022-09-21T01:55:22.813Z,5.9
2022-09-21T01:56:32.929Z,5.9
2022-09-21T01:57:43.054Z,5.9
2022-09-21T01:58:53.159Z,5.9
2022-09-21T02:00:02.290Z,5.9
2022-09-21T02:01:12.411Z,5.9
2022-09-21T02:02:22.531Z,6
2022-09-21T02:03:32.656Z,5.9
2022-09-21T02:04:42.762Z,5.9
2022-09-21T02:05:52.894Z,5.9
2022-09-21T02:07:03.001Z,5.9
2022-09-21T02:08:13.126Z,5.9
2022-09-21T02:09:23.250Z,5.8
2022-09-21T02:10:33.505Z,5.8
2022-09-21T02:11:43.487Z,5.8
2022-09-21T02:12:53.588Z,5.7
2022-09-21T02:14:03.704Z,5.7
2022-09-21T02:15:12.857Z,5.7
2022-09-21T02:16:22.960Z,5.7
2022-09-21T02:17:33.092Z,5.7
2022-09-21T02:18:43.200Z,5.7
2022-09-21T02:19:53.310Z,5.7
2022-09-21T02:21:03.438Z,5.7
2022-09-21T02:22:13.556Z,5.7
2022-09-21T02:23:23.683Z,5.6
2022-09-21T02:24:33.789Z,5.6
2022-09-21T02:25:43.903Z,5.6
2022-09-21T02:26:54.024Z,5.6
2022-09-21T02:28:04.149Z,5.6
2022-09-21T02:29:14.257Z,5.6
2022-09-21T02:30:23.407Z,5.6
2022-09-21T02:31:33.516Z,5.5
2022-09-21T02:32:43.640Z,5.5
2022-09-21T02:33:53.749Z,5.5
2022-09-21T02:35:03.866Z,5.5
2022-09-21T02:36:13.993Z,5.5
2022-09-21T02:37:24.099Z,5.5
2022-09-21T02:38:34.217Z,5.6
2022-09-21T02:39:44.347Z,5.6
2022-09-21T02:40:54.453Z,5.6
2022-09-21T02:42:04.579Z,5.7
2022-09-21T02:43:14.701Z,5.7
2022-09-21T02:44:24.804Z,5.6
2022-09-21T02:46:44.070Z,5.5
2022-09-21T02:47:54.176Z,5.5
2022-09-21T02:49:04.306Z,5.5
2022-09-21T02:50:14.418Z,5.6
2022-09-21T02:52:34.658Z,5.6
2022-09-21T02:53:44.768Z,5.7
2022-09-21T02:54:54.896Z,5.7
2022-09-21T02:56:05.001Z,5.7
2022-09-21T02:57:15.130Z,5.7
2022-09-21T02:58:25.255Z,5.7
2022-09-21T02:59:35.364Z,5.8
2022-09-21T03:00:44.505Z,5.8
2022-09-21T03:01:54.625Z,5.8
2022-09-21T03:03:04.728Z,5.8
2022-09-21T03:04:14.851Z,5.8
2022-09-21T03:05:24.970Z,5.8
2022-09-21T03:06:35.079Z,5.8
2022-09-21T03:07:45.202Z,5.7
2022-09-21T03:08:55.330Z,5.7
2022-09-21T03:10:05.585Z,5.7
2022-09-21T03:11:15.554Z,5.7
2022-09-21T03:12:25.677Z,5.7
2022-09-21T03:13:35.804Z,5.6
2022-09-21T03:14:45.909Z,5.7
2022-09-21T03:15:55.057Z,5.7
2022-09-21T03:17:05.168Z,5.8
2022-09-21T03:18:15.292Z,5.8
2022-09-21T03:19:25.403Z,5.8
2022-09-21T03:21:45.630Z,5.8
2022-09-21T03:22:54.918Z,5.7
2022-09-21T03:24:04.904Z,5.8
2022-09-21T03:25:15.007Z,5.8
2022-09-21T03:26:25.128Z,5.9
2022-09-21T03:27:35.249Z,5.9
2022-09-21T03:28:45.371Z,5.9
2022-09-21T03:29:55.628Z,5.9
2022-09-21T03:31:05.594Z,5.9
2022-09-21T03:32:15.720Z,5.9
2022-09-21T03:33:25.846Z,5.9
2022-09-21T03:34:35.950Z,5.9
2022-09-21T03:35:46.077Z,5.9
2022-09-21T03:36:56.202Z,5.9
2022-09-21T03:38:05.333Z,5.8
2022-09-21T03:39:15.435Z,5.8
2022-09-21T03:40:25.560Z,5.8
2022-09-21T03:41:35.689Z,5.7
2022-09-21T03:42:45.796Z,5.7
2022-09-21T03:43:55.916Z,5.7
2022-09-21T03:45:06.032Z,5.7
2022-09-21T03:46:16.153Z,5.7
2022-09-21T03:47:26.274Z,5.7
2022-09-21T03:48:36.382Z,5.7
2022-09-21T03:49:46.513Z,5.8
2022-09-21T03:50:56.634Z,5.8
2022-09-21T03:52:06.734Z,5.8
2022-09-21T03:53:15.867Z,5.8
2022-09-21T03:54:25.988Z,5.9
2022-09-21T03:55:36.111Z,5.9
2022-09-21T03:56:46.232Z,5.9
2022-09-21T03:57:56.341Z,5.9
2022-09-21T03:59:06.468Z,5.9
2022-09-21T04:00:16.589Z,5.9
2022-09-21T04:01:26.694Z,5.9
2022-09-21T04:03:46.940Z,5.7
2022-09-21T04:04:57.065Z,5.7
2022-09-21T04:06:07.181Z,5.7
2022-09-21T04:07:17.437Z,5.7
2022-09-21T04:08:26.572Z,5.7
2022-09-21T04:09:36.550Z,5.7
2022-09-21T04:10:46.814Z,5.7
2022-09-21T04:11:56.925Z,5.7
2022-09-21T04:13:07.048Z,5.7
2022-09-21T04:14:17.013Z,5.8
2022-09-21T04:15:27.000Z,5.8
2022-09-21T04:16:37.253Z,5.8
2022-09-21T04:17:47.365Z,5.8
2022-09-21T04:18:57.487Z,5.7
2022-09-21T04:20:07.597Z,5.6
2022-09-21T04:21:17.720Z,5.6
2022-09-21T04:22:27.846Z,5.6
2022-09-21T04:25:57.208Z,5.5
2022-09-21T04:27:06.348Z,5.4
2022-09-21T04:28:15.495Z,5.4
2022-09-21T04:29:25.612Z,5.4
2022-09-21T04:30:35.721Z,5.5
2022-09-21T04:31:45.835Z,5.5
2022-09-21T04:32:55.961Z,5.4
2022-09-21T04:34:06.081Z,5.4
2022-09-21T04:35:16.206Z,5.4
2022-09-21T04:36:26.307Z,5.4
2022-09-21T04:37:36.428Z,5.4
2022-09-21T04:38:46.549Z,5.4
2022-09-21T04:39:55.706Z,5.3
2022-09-21T04:41:04.824Z,5.3
2022-09-21T04:42:14.949Z,5.3
2022-09-21T04:43:25.207Z,5.3
2022-09-21T04:44:35.181Z,5.3
2022-09-21T04:45:45.454Z,5.2
2022-09-21T04:46:55.567Z,5.2
2022-09-21T04:49:15.799Z,5.2
2022-09-21T04:50:25.766Z,5.2
2022-09-21T04:52:46.015Z,5.2
2022-09-21T04:53:56.124Z,5.2
2022-09-21T04:55:05.276Z,5.1
2022-09-21T04:56:14.410Z,5.1
2022-09-21T04:57:24.533Z,5
2022-09-21T04:58:34.636Z,5
2022-09-21T05:00:54.882Z,5
2022-09-21T05:02:04.989Z,5
2022-09-21T05:03:15.112Z,5
2022-09-21T05:04:25.235Z,5.1
2022-09-21T05:05:35.353Z,5.1
2022-09-21T05:06:45.466Z,5
2022-09-21T05:07:55.590Z,5.1
2022-09-21T05:09:05.698Z,5
2022-09-21T05:10:15.823Z,5.1
2022-09-21T05:11:24.952Z,5.1
2022-09-21T05:13:45.185Z,5.1
2022-09-21T05:14:54.338Z,5.1
2022-09-21T05:16:03.469Z,5
2022-09-21T05:17:13.596Z,5
2022-09-21T05:18:23.715Z,5.1
2022-09-21T05:19:33.818Z,5.1
2022-09-21T05:20:43.940Z,5.2
2022-09-21T05:21:54.062Z,5.2
2022-09-21T05:23:04.190Z,5.2
2022-09-21T05:24:14.291Z,5.2
2022-09-21T05:25:24.556Z,5.3
2022-09-21T05:26:34.545Z,5.3
2022-09-21T05:27:43.677Z,5.4
2022-09-21T05:28:52.808Z,5.5
2022-09-21T05:30:02.932Z,5.5
2022-09-21T05:31:13.058Z,5.5
2022-09-21T05:32:23.167Z,5.5
2022-09-21T05:34:43.405Z,5.6
2022-09-21T05:35:53.530Z,5.6
2022-09-21T05:37:03.637Z,5.7
2022-09-21T05:38:13.765Z,5.7
2022-09-21T05:39:23.872Z,5.8
2022-09-21T05:41:44.115Z,6
2022-09-21T05:42:53.262Z,6
2022-09-21T05:44:02.395Z,6.1
2022-09-21T05:45:12.508Z,6.1
2022-09-21T05:46:22.634Z,6.3
2022-09-21T05:47:32.889Z,6.4
2022-09-21T05:48:42.861Z,6.5
2022-09-21T05:49:52.987Z,6.6
2022-09-21T05:51:03.097Z,6.6
2022-09-21T05:52:13.223Z,6.7
2022-09-21T05:53:23.327Z,6.7
2022-09-21T05:54:33.453Z,6.9
2022-09-21T05:55:42.592Z,7.1
2022-09-21T05:56:51.734Z,7.2
2022-09-21T05:58:01.856Z,7.4
2022-09-21T05:59:11.957Z,7.6
2022-09-21T06:00:22.088Z,7.7
2022-09-21T06:01:32.208Z,7.8
2022-09-21T06:02:42.316Z,7.9
2022-09-21T06:03:52.438Z,8
2022-09-21T06:05:02.549Z,8.2
2022-09-21T06:06:12.683Z,8.4
2022-09-21T06:07:22.787Z,8.6
2022-09-21T06:08:31.940Z,8.8
2022-09-21T06:09:41.072Z,9
2022-09-21T06:10:51.342Z,9.2
2022-09-21T06:12:01.310Z,9.3
2022-09-21T06:13:11.430Z,9.4
2022-09-21T06:14:21.539Z,9.6
2022-09-21T06:15:31.663Z,9.8
2022-09-21T06:16:41.789Z,10
2022-09-21T06:17:51.896Z,10.1
2022-09-21T06:19:02.023Z,10.2
2022-09-21T06:20:12.125Z,10.5
2022-09-21T06:21:22.249Z,10.6
2022-09-21T06:22:32.362Z,10.8
2022-09-21T06:23:42.484Z,10.9
2022-09-21T06:24:51.613Z,11
2022-09-21T06:26:01.742Z,11.1
2022-09-21T06:27:11.849Z,11.1
2022-09-21T06:28:21.979Z,11.2
2022-09-21T06:29:32.088Z,11.2
2022-09-21T06:30:42.211Z,11.3
2022-09-21T06:31:52.334Z,11.4
2022-09-21T06:33:02.442Z,11.6
2022-09-21T06:34:12.564Z,11.7
2022-09-21T06:35:22.670Z,11.9
2022-09-21T06:36:32.793Z,11.9
2022-09-21T06:37:42.920Z,12
2022-09-21T06:38:53.176Z,12.1
2022-09-21T06:40:02.172Z,12.2
2022-09-21T06:41:12.289Z,12.2
2022-09-21T06:42:22.395Z,12.3
2022-09-21T06:43:32.520Z,12.3
2022-09-21T06:44:42.642Z,12.4
2022-09-21T06:45:52.109Z,12.4
2022-09-21T06:47:02.866Z,12.4
2022-09-21T06:48:12.996Z,12.5
2022-09-21T06:49:23.105Z,12.6
2022-09-21T06:50:33.228Z,12.7
2022-09-21T06:51:43.339Z,12.8
2022-09-21T06:52:53.454Z,12.7
2022-09-21T06:54:03.579Z,12.7
2022-09-21T06:55:12.859Z,12.7
2022-09-21T06:56:22.828Z,12.8
2022-09-21T06:57:32.949Z,12.8
2022-09-21T06:58:43.216Z,12.8
2022-09-21T06:59:53.175Z,12.9
2022-09-21T07:01:03.303Z,13
2022-09-21T07:02:13.423Z,13
2022-09-21T07:03:23.532Z,13.1
2022-09-21T07:04:33.655Z,13.1
2022-09-21T07:05:43.770Z,13.1
2022-09-21T07:06:53.888Z,13.1
2022-09-21T07:08:04.011Z,13.1
2022-09-21T07:09:14.115Z,13.2
2022-09-21T07:10:23.409Z,13.2
2022-09-21T07:12:43.495Z,13.4
2022-09-21T07:13:53.615Z,13.4
2022-09-21T07:15:03.738Z,13.5
2022-09-21T07:16:13.845Z,13.6
2022-09-21T07:17:22.976Z,13.7
2022-09-21T07:18:33.106Z,13.6
2022-09-21T07:19:43.222Z,13.7
2022-09-21T07:20:53.345Z,13.8
2022-09-21T07:22:03.448Z,13.8
2022-09-21T07:23:13.576Z,13.9
2022-09-21T07:24:23.684Z,13.9
2022-09-21T07:25:33.803Z,14
2022-09-21T07:26:43.931Z,14
2022-09-21T07:27:54.045Z,14.1
2022-09-21T07:29:04.154Z,14.1
2022-09-21T07:30:14.274Z,14.1
2022-09-21T07:31:24.401Z,13.8
2022-09-21T07:32:33.532Z,13.7
2022-09-21T07:33:43.788Z,13.5
2022-09-21T07:34:53.763Z,13.4
2022-09-21T07:36:03.876Z,13.2
2022-09-21T07:37:13.999Z,13
2022-09-21T07:38:24.118Z,12.9
2022-09-21T07:39:34.242Z,13
2022-09-21T07:40:44.360Z,13
2022-09-21T07:41:54.465Z,13
2022-09-21T07:43:04.591Z,13.1
2022-09-21T07:44:14.711Z,13.1
2022-09-21T07:45:24.828Z,13.3
2022-09-21T07:46:34.943Z,13.4
2022-09-21T07:47:44.080Z,13.5
2022-09-21T07:48:54.197Z,13.5
2022-09-21T07:50:04.306Z,13.8
2022-09-21T07:51:14.435Z,14
2022-09-21T07:52:24.557Z,14.4
2022-09-21T07:54:44.790Z,14.5
2022-09-21T07:55:54.907Z,14.6
2022-09-21T07:57:05.012Z,14.7
2022-09-21T07:58:15.136Z,15
2022-09-21T07:59:25.244Z,15.1
2022-09-21T08:00:35.364Z,15.3
2022-09-21T08:01:45.490Z,15.4
2022-09-21T08:02:54.628Z,15.6
2022-09-21T08:04:04.731Z,15.5
2022-09-21T08:05:14.858Z,15.5
2022-09-21T08:06:24.980Z,15.5
2022-09-21T08:08:45.207Z,15.3
2022-09-21T08:09:55.336Z,15.3
2022-09-21T08:11:05.444Z,15.4
2022-09-21T08:12:15.561Z,15.5
2022-09-21T08:13:25.688Z,15.6
2022-09-21T08:14:35.803Z,15.6
2022-09-21T08:15:45.910Z,15.3
2022-09-21T08:16:56.029Z,15.1
2022-09-21T08:18:05.174Z,14.8
2022-09-21T08:19:15.280Z,14.7
2022-09-21T08:20:25.405Z,14.3
2022-09-21T08:21:35.510Z,14.3
2022-09-21T08:22:45.634Z,14.1
2022-09-21T08:23:55.759Z,14.1
2022-09-21T08:25:05.878Z,14.3
2022-09-21T08:26:15.983Z,14.3
2022-09-21T08:27:26.111Z,14.3
2022-09-21T08:28:36.217Z,14.2
2022-09-21T08:29:46.343Z,14.3
2022-09-21T08:30:56.461Z,14.3
2022-09-21T08:32:06.569Z,14.4
2022-09-21T08:33:15.720Z,14.5
2022-09-21T08:34:25.838Z,14.9
2022-09-21T08:35:35.947Z,15.2
2022-09-21T08:36:46.055Z,15.6
2022-09-21T08:37:56.184Z,15.9
2022-09-21T08:39:06.290Z,16.1
2022-09-21T08:40:16.418Z,15.8
2022-09-21T08:41:26.525Z,15.9
2022-09-21T08:42:36.653Z,16
2022-09-21T08:43:46.761Z,15.9
2022-09-21T08:44:56.882Z,16.1
2022-09-21T08:46:07.002Z,16
2022-09-21T08:47:17.123Z,15.7
2022-09-21T08:48:26.399Z,15.7
2022-09-21T08:49:36.363Z,15.8
2022-09-21T08:50:46.488Z,15.8
2022-09-21T08:51:56.602Z,16.1
2022-09-21T08:53:06.721Z,16.3
2022-09-21T08:54:16.848Z,16.2
2022-09-21T08:55:27.096Z,16.2
2022-09-21T08:57:47.203Z,16
2022-09-21T08:58:57.307Z,16.2
2022-09-21T09:00:07.431Z,16.1
2022-09-21T09:01:17.555Z,15.8
2022-09-21T09:02:27.658Z,15.5
2022-09-21T09:03:36.791Z,15.3
2022-09-21T09:04:46.922Z,15.1
2022-09-21T09:05:57.035Z,15.1
2022-09-21T09:07:07.144Z,15
2022-09-21T09:08:17.273Z,14.9
2022-09-21T09:09:27.392Z,14.9
2022-09-21T09:10:37.501Z,15
2022-09-21T09:11:47.613Z,15.1
2022-09-21T09:12:57.740Z,15
2022-09-21T09:14:07.848Z,14.9
2022-09-21T09:15:17.969Z,14.8
2022-09-21T09:16:28.095Z,14.7
2022-09-21T09:17:38.214Z,14.6
2022-09-21T09:18:47.348Z,14.6
2022-09-21T09:19:57.467Z,14.6
2022-09-21T09:21:07.568Z,14.6
2022-09-21T09:22:17.688Z,14.6
2022-09-21T09:23:27.813Z,14.8
2022-09-21T09:24:37.923Z,14.9
2022-09-21T09:25:48.041Z,15
2022-09-21T09:26:58.173Z,15.1
2022-09-21T09:28:08.273Z,15.2
2022-09-21T09:29:18.410Z,15.3
2022-09-21T09:30:28.513Z,15.5
2022-09-21T09:31:38.636Z,15.4
2022-09-21T09:32:48.760Z,15.6
2022-09-21T09:33:57.881Z,15.8
2022-09-21T09:35:08.009Z,15.8
2022-09-21T09:36:18.123Z,16
2022-09-21T09:37:28.246Z,15.9
2022-09-21T09:38:38.355Z,15.6
2022-09-21T09:39:48.466Z,15.7
2022-09-21T09:40:58.589Z,16
2022-09-21T09:42:08.718Z,16.3
2022-09-21T09:43:18.817Z,16.4
2022-09-21T09:44:28.941Z,16.4
2022-09-21T09:46:49.170Z,16.2
2022-09-21T09:47:59.293Z,16.2
2022-09-21T09:49:08.432Z,16
2022-09-21T09:50:18.545Z,16
2022-09-21T09:51:28.673Z,15.7
2022-09-21T09:52:38.785Z,15.7
2022-09-21T09:53:48.905Z,15.7
2022-09-21T09:54:59.027Z,15.7
2022-09-21T09:56:09.131Z,15.8
2022-09-21T09:57:19.252Z,15.5
2022-09-21T09:58:29.364Z,15.7
2022-09-21T09:59:39.489Z,15.8
2022-09-21T10:00:49.614Z,15.7
2022-09-21T10:01:59.862Z,15.6
2022-09-21T10:03:09.841Z,15.5
2022-09-21T10:04:18.972Z,15.5
2022-09-21T10:05:29.096Z,15.4
2022-09-21T10:06:39.207Z,15.4
2022-09-21T10:07:49.335Z,15.4
2022-09-21T10:08:59.439Z,15.5
2022-09-21T10:10:09.566Z,15.8
2022-09-21T10:11:19.686Z,16
2022-09-21T10:12:29.934Z,16.1
2022-09-21T10:13:39.910Z,16.3
2022-09-21T10:14:50.040Z,16.5
2022-09-21T10:15:59.480Z,16.7
2022-09-21T10:17:10.275Z,16.5
2022-09-21T10:18:20.382Z,16.2
2022-09-21T10:19:29.513Z,15.9
2022-09-21T10:20:39.639Z,15.7
2022-09-21T10:21:49.762Z,15.6
2022-09-21T10:22:59.868Z,15.6
2022-09-21T10:24:09.996Z,15.6
2022-09-21T10:25:20.116Z,15.5
2022-09-21T10:26:30.217Z,15.7
2022-09-21T10:27:40.340Z,16
2022-09-21T10:28:50.461Z,16.1
2022-09-21T10:30:00.580Z,16.2
2022-09-21T10:31:10.698Z,16.4
2022-09-21T10:32:20.803Z,16.3
2022-09-21T10:33:30.931Z,15.9
2022-09-21T10:34:40.068Z,15.6
2022-09-21T10:35:50.179Z,15.6
2022-09-21T10:36:59.635Z,15.6
2022-09-21T10:38:10.413Z,15.5
2022-09-21T10:39:20.539Z,15.5
2022-09-21T10:40:30.644Z,15.4
2022-09-21T10:41:40.768Z,15.5
2022-09-21T10:42:50.889Z,15.8
2022-09-21T10:44:00.998Z,16.1
2022-09-21T10:45:11.123Z,16.3
2022-09-21T10:46:21.246Z,16.2
2022-09-21T10:47:31.346Z,16.2
2022-09-21T10:48:41.470Z,16.2
2022-09-21T10:49:50.608Z,16.3
2022-09-21T10:51:00.731Z,16.3
2022-09-21T10:52:10.850Z,16.4
2022-09-21T10:53:20.950Z,16.6
2022-09-21T10:54:31.081Z,16.8
2022-09-21T10:55:41.188Z,17
2022-09-21T10:56:51.315Z,17.1
2022-09-21T10:58:01.422Z,17.1
2022-09-21T10:59:11.544Z,17
2022-09-21T11:00:21.668Z,16.7
2022-09-21T11:01:31.783Z,16.3
2022-09-21T11:02:41.909Z,15.9
2022-09-21T11:03:52.011Z,15.9
2022-09-21T11:05:01.153Z,15.9
2022-09-21T11:06:11.269Z,15.8
2022-09-21T11:07:21.377Z,16
2022-09-21T11:08:31.503Z,16.3
2022-09-21T11:10:51.743Z,16.8
2022-09-21T11:12:00.872Z,16.9
2022-09-21T11:13:10.999Z,17
2022-09-21T11:14:21.114Z,17.1
2022-09-21T11:15:31.239Z,17.2
2022-09-21T11:16:41.341Z,17.3
2022-09-21T11:17:51.602Z,17.1
2022-09-21T11:19:01.577Z,17.1
2022-09-21T11:20:11.695Z,16.8
2022-09-21T11:21:21.819Z,16.5
2022-09-21T11:22:31.927Z,16.5
2022-09-21T11:23:42.053Z,16.5
2022-09-21T11:24:52.163Z,16
2022-09-21T11:26:02.285Z,16
2022-09-21T11:27:11.424Z,16.2
2022-09-21T11:28:21.549Z,16.5
2022-09-21T11:29:31.651Z,16.7
2022-09-21T11:31:51.885Z,16.8
2022-09-21T11:33:02.011Z,16.9
2022-09-21T11:34:12.118Z,16.9
2022-09-21T11:35:22.250Z,17
2022-09-21T11:36:32.370Z,16.7
2022-09-21T11:37:42.472Z,16.5
2022-09-21T11:38:52.604Z,16.5
2022-09-21T11:40:02.710Z,16.1
2022-09-21T11:41:12.834Z,16.2
2022-09-21T11:42:21.971Z,16.2
2022-09-21T11:43:32.086Z,16.2
2022-09-21T11:44:42.192Z,16.2
2022-09-21T11:45:52.319Z,16.3
2022-09-21T11:47:02.000Z,16.5
2022-09-21T11:48:12.552Z,16.4
2022-09-21T11:49:22.676Z,16.3
2022-09-21T11:50:32.780Z,16.4
2022-09-21T11:51:42.897Z,16.2
2022-09-21T11:52:53.024Z,16.3
2022-09-21T11:54:03.134Z,16.4
2022-09-21T11:55:13.257Z,16.2
2022-09-21T11:56:23.384Z,15.9
2022-09-21T11:57:32.509Z,16.2
2022-09-21T11:58:42.632Z,16.2
2022-09-21T11:59:52.737Z,16.4
2022-09-21T12:01:02.859Z,16.5
2022-09-21T12:02:12.984Z,16.4
2022-09-21T12:03:23.090Z,16.4
2022-09-21T12:04:33.209Z,16.5
2022-09-21T12:05:43.327Z,16.5
2022-09-21T12:06:53.456Z,16.4
2022-09-21T12:08:03.559Z,16.2
2022-09-21T12:09:13.688Z,16.3
2022-09-21T12:10:23.796Z,16.2
2022-09-21T12:11:33.924Z,16.2
2022-09-21T12:12:43.058Z,16
2022-09-21T12:13:53.166Z,16.1
2022-09-21T12:15:03.288Z,16.3
2022-09-21T12:16:13.416Z,16.2
2022-09-21T12:17:23.524Z,16.3
2022-09-21T12:18:33.649Z,16.4
2022-09-21T12:19:43.755Z,16.5
2022-09-21T12:20:53.883Z,16.6
2022-09-21T12:22:04.000Z,16.4
2022-09-21T12:23:14.105Z,16.3
2022-09-21T12:24:24.232Z,16
2022-09-21T12:25:34.343Z,16.2
2022-09-21T12:26:44.464Z,16.2
2022-09-21T12:27:53.603Z,16.2
2022-09-21T12:29:03.726Z,16.1
2022-09-21T12:30:13.828Z,16.4
2022-09-21T12:31:23.951Z,16.3
2022-09-21T12:32:34.075Z,16.3
2022-09-21T12:33:44.181Z,16.5
2022-09-21T12:34:54.312Z,16.5
2022-09-21T12:36:04.420Z,16.6
2022-09-21T12:37:14.545Z,16.5
2022-09-21T12:38:24.665Z,16.4
2022-09-21T12:39:34.783Z,16.1
2022-09-21T12:40:44.889Z,16.1
2022-09-21T12:41:55.015Z,16.1
2022-09-21T12:43:04.155Z,16.3
2022-09-21T12:44:14.274Z,16.1
2022-09-21T12:45:24.377Z,16.3
2022-09-21T12:46:34.501Z,16.5
2022-09-21T12:47:44.624Z,16.6
2022-09-21T12:48:54.729Z,16.7
2022-09-21T12:50:04.859Z,16.7
2022-09-21T12:51:14.975Z,16.7
2022-09-21T12:52:25.082Z,16.8
2022-09-21T12:53:35.209Z,16.6
2022-09-21T12:54:45.328Z,16.7
2022-09-21T12:55:55.440Z,16.6
2022-09-21T12:57:05.568Z,16.4
2022-09-21T12:58:14.688Z,16.6
2022-09-21T12:59:24.814Z,16.6
2022-09-21T13:00:34.919Z,16.5
2022-09-21T13:01:45.048Z,16.4
2022-09-21T13:02:55.156Z,16.4
2022-09-21T13:04:05.282Z,16.3
2022-09-21T13:05:15.402Z,16.3
2022-09-21T13:06:25.516Z,16.4
2022-09-21T13:07:35.642Z,16.2
2022-09-21T13:08:45.746Z,16.4
2022-09-21T13:09:55.870Z,16.6
2022-09-21T13:11:05.994Z,16.4
2022-09-21T13:12:16.100Z,16.3
2022-09-21T13:13:25.248Z,16.4
2022-09-21T13:14:35.351Z,16.5
2022-09-21T13:15:45.483Z,16.4
2022-09-21T13:16:55.588Z,16.5
2022-09-21T13:18:05.713Z,16.5
2022-09-21T13:19:15.822Z,16.3
2022-09-21T13:20:25.951Z,16
2022-09-21T13:21:36.068Z,16.2
2022-09-21T13:22:46.173Z,16.2
2022-09-21T13:23:56.292Z,16.1
2022-09-21T13:25:06.420Z,16.2
2022-09-21T13:26:16.542Z,16.4
2022-09-21T13:27:26.643Z,16.6
2022-09-21T13:28:35.777Z,16.7
2022-09-21T13:29:45.901Z,16.7
2022-09-21T13:30:56.026Z,16.7
2022-09-21T13:32:06.148Z,16.8
2022-09-21T13:33:16.258Z,16.9
2022-09-21T13:34:26.368Z,16.9
2022-09-21T13:35:36.486Z,16.9
2022-09-21T13:36:46.608Z,16.6
2022-09-21T13:37:56.732Z,16.5
2022-09-21T13:39:06.836Z,16.6
2022-09-21T13:40:16.959Z,16.6
2022-09-21T13:41:27.072Z,16.6
2022-09-21T13:42:37.194Z,16.5
2022-09-21T13:43:46.334Z,16.6
2022-09-21T13:44:56.439Z,16.5
2022-09-21T13:46:06.563Z,16.5
2022-09-21T13:47:16.686Z,16.5
2022-09-21T13:48:26.797Z,16.6
2022-09-21T13:49:36.914Z,16.7
2022-09-21T13:50:47.039Z,16.6
2022-09-21T13:51:57.163Z,16.4
2022-09-21T13:53:07.268Z,16.4
2022-09-21T13:54:17.396Z,16.5
2022-09-21T13:55:27.500Z,16.5
2022-09-21T13:56:37.634Z,16.4
2022-09-21T13:57:47.738Z,16.4
2022-09-21T13:58:56.875Z,16.4
2022-09-21T14:00:06.992Z,16.3
2022-09-21T14:01:17.110Z,16.2
2022-09-21T14:02:27.234Z,16.1
2022-09-21T14:03:37.343Z,16.2
2022-09-21T14:04:47.474Z,16.3
2022-09-21T14:05:57.586Z,16.3
2022-09-21T14:07:07.695Z,16.3
2022-09-21T14:08:17.815Z,16.3
2022-09-21T14:09:27.943Z,16.1
2022-09-21T14:10:38.055Z,16.2
2022-09-21T14:11:48.180Z,16.2
2022-09-21T14:12:58.282Z,16.2
2022-09-21T14:14:07.419Z,16.3
2022-09-21T14:15:17.542Z,16.2
2022-09-21T14:16:27.666Z,16.4
2022-09-21T14:17:37.776Z,16.4
2022-09-21T14:18:47.883Z,16.4
2022-09-21T14:19:58.011Z,16.5
2022-09-21T14:21:08.136Z,16.4
2022-09-21T14:22:18.240Z,16.4
2022-09-21T14:23:28.364Z,16.4
2022-09-21T14:24:38.478Z,16.4
2022-09-21T14:25:48.606Z,16.4
2022-09-21T14:26:58.708Z,16.4
2022-09-21T14:28:08.836Z,16.4
2022-09-21T14:29:17.975Z,16.5
2022-09-21T14:30:28.079Z,16.6
2022-09-21T14:31:38.200Z,16.6
2022-09-21T14:32:48.328Z,16.7
2022-09-21T14:33:58.432Z,16.7
2022-09-21T14:35:08.561Z,16.7
2022-09-21T14:36:18.678Z,16.7
2022-09-21T14:37:28.784Z,16.6
2022-09-21T14:38:38.913Z,16.7
2022-09-21T14:40:59.151Z,17.7
2022-09-21T14:42:09.257Z,18.5
2022-09-21T14:43:19.378Z,19.6
2022-09-21T14:44:28.517Z,20.1
2022-09-21T14:45:38.639Z,20.5
2022-09-21T14:46:48.747Z,21
2022-09-21T14:47:58.868Z,21.6
2022-09-21T14:49:08.993Z,21.7
2022-09-21T14:50:19.104Z,21.8
2022-09-21T14:51:29.209Z,22
2022-09-21T14:52:39.329Z,22
2022-09-21T14:53:49.455Z,21.6
2022-09-21T14:56:09.699Z,21.7
2022-09-21T14:57:19.808Z,21.4
2022-09-21T14:58:29.928Z,21.9
2022-09-21T14:59:39.065Z,21
2022-09-21T15:00:49.174Z,21.6
2022-09-21T15:01:59.292Z,22.5
2022-09-21T15:03:09.416Z,23.2
2022-09-21T15:04:19.526Z,23.5
2022-09-21T15:05:29.651Z,23.1
2022-09-21T15:06:38.778Z,23.3
2022-09-21T15:07:48.914Z,22.4
2022-09-21T15:08:59.013Z,20.8
2022-09-21T15:10:09.142Z,20.4
2022-09-21T15:11:19.253Z,19.9
2022-09-21T15:12:29.368Z,20.6
2022-09-21T15:13:39.494Z,21.8
2022-09-21T15:14:49.621Z,20.9
2022-09-21T15:15:59.728Z,20.6
2022-09-21T15:17:09.853Z,20.6
2022-09-21T15:18:19.975Z,20.9
2022-09-21T15:19:30.082Z,21.7
2022-09-21T15:20:40.203Z,20.1
2022-09-21T15:21:49.342Z,20.3
2022-09-21T15:22:59.450Z,20.9
2022-09-21T15:24:09.573Z,21.1
2022-09-21T15:25:19.682Z,21.6
2022-09-21T15:26:29.798Z,22
2022-09-21T15:27:39.934Z,23
2022-09-21T15:28:50.040Z,23
2022-09-21T15:30:00.159Z,22.5
2022-09-21T15:31:10.407Z,22.8
2022-09-21T15:32:20.393Z,21.7
2022-09-21T15:33:30.515Z,20.7
2022-09-21T15:34:40.639Z,20.3
2022-09-21T15:35:50.758Z,21.2
2022-09-21T15:36:59.875Z,21.2
2022-09-21T15:38:10.004Z,20.6
2022-09-21T15:39:20.109Z,19.5
2022-09-21T15:40:30.240Z,17.9
2022-09-21T15:41:40.346Z,17
2022-09-21T15:42:50.466Z,16.5
2022-09-21T15:44:00.594Z,16.3
2022-09-21T15:45:10.000Z,16.1
2022-09-21T15:46:20.832Z,16
2022-09-21T15:47:30.935Z,15.7
2022-09-21T15:48:41.063Z,15.6
2022-09-21T15:49:51.170Z,15.4
2022-09-21T15:51:01.299Z,15.4
2022-09-21T15:52:10.436Z,15.3
2022-09-21T15:53:20.554Z,15.2
2022-09-21T15:54:30.664Z,15.1
2022-09-21T15:55:40.911Z,15
2022-09-21T15:56:50.898Z,15
2022-09-21T15:58:01.025Z,14.9
2022-09-21T15:59:11.130Z,14.9
2022-09-21T16:00:21.253Z,14.9
2022-09-21T16:01:31.376Z,14.8
2022-09-21T16:02:41.484Z,14.9
2022-09-21T16:03:51.597Z,15.3
2022-09-21T16:05:01.731Z,16
2022-09-21T16:06:11.834Z,17.1
2022-09-21T16:07:20.985Z,17.6
2022-09-21T16:08:31.102Z,17.4
2022-09-21T16:09:41.203Z,16.8
2022-09-21T16:10:51.331Z,16.2
2022-09-21T16:12:01.451Z,15.6
2022-09-21T16:13:11.554Z,15.3
2022-09-21T16:14:21.684Z,14.9
2022-09-21T16:15:31.790Z,14.8
2022-09-21T16:16:41.920Z,14.6